createdAt,value
2022-10-19T00:02:15.535Z,10.10
2022-10-19T00:05:18.367Z,10.10
2022-10-19T00:08:20.973Z,10.09
2022-10-19T00:11:24.285Z,10.00
2022-10-19T00:14:26.718Z,10.02
2022-10-19T00:17:32.126Z,10.08
2022-10-19T00:20:34.861Z,10.08
2022-10-19T00:23:38.353Z,10.04
2022-10-19T00:26:42.712Z,9.89
2022-10-19T00:29:44.737Z,9.78
2022-10-19T00:32:47.435Z,9.74
2022-10-19T00:35:50.708Z,9.75
2022-10-19T00:38:54.202Z,9.77
2022-10-19T00:41:56.698Z,9.68
2022-10-19T00:45:02.349Z,9.59
2022-10-19T00:48:04.708Z,9.65
2022-10-19T00:51:09.589Z,9.74
2022-10-19T00:54:12.346Z,9.68
2022-10-19T00:57:15.747Z,9.62
2022-10-19T01:00:18.744Z,9.63
2022-10-19T01:03:25.812Z,9.65
2022-10-19T01:06:30.553Z,9.81
2022-10-19T01:09:33.204Z,9.77
2022-10-19T01:12:47.506Z,9.81
2022-10-19T01:15:57.008Z,9.80
2022-10-19T01:19:08.013Z,9.89
2022-10-19T01:22:18.549Z,9.94
2022-10-19T01:25:40.267Z,9.98
2022-10-19T01:29:04.649Z,10.00
2022-10-19T01:32:09.906Z,10.04
2022-10-19T01:35:15.257Z,10.11
2022-10-19T01:38:23.140Z,10.19
2022-10-19T01:41:25.925Z,10.19
2022-10-19T01:44:47.240Z,10.20
2022-10-19T01:47:56.067Z,10.19
2022-10-19T01:51:05.441Z,10.11
2022-10-19T01:54:10.643Z,10.19
2022-10-19T01:57:15.474Z,10.24
2022-10-19T02:00:18.565Z,10.18
2022-10-19T02:03:21.245Z,10.24
2022-10-19T02:06:24.861Z,10.11
2022-10-19T02:09:27.836Z,10.13
2022-10-19T02:12:33.161Z,10.05
2022-10-19T02:15:37.791Z,10.11
2022-10-19T02:18:43.559Z,10.11
2022-10-19T02:21:48.084Z,10.01
2022-10-19T02:24:53.524Z,10.09
2022-10-19T02:27:56.772Z,10.05
2022-10-19T02:31:03.907Z,10.06
2022-10-19T02:34:07.410Z,10.09
2022-10-19T02:37:10.206Z,10.03
2022-10-19T02:40:12.873Z,10.05
2022-10-19T02:43:20.292Z,10.15
2022-10-19T02:46:27.299Z,10.22
2022-10-19T02:49:30.736Z,10.14
2022-10-19T02:52:34.355Z,10.12
2022-10-19T02:58:47.080Z,10.19
2022-10-19T03:01:53.787Z,10.22
2022-10-19T03:04:59.832Z,10.25
2022-10-19T03:08:03.316Z,10.27
2022-10-19T03:11:06.509Z,10.35
2022-10-19T03:14:09.078Z,10.51
2022-10-19T03:17:12.894Z,10.82
2022-10-19T03:20:17.246Z,11.22
2022-10-19T03:23:20.324Z,11.38
2022-10-19T03:26:23.310Z,11.53
2022-10-19T03:29:25.920Z,11.62
2022-10-19T03:32:29.268Z,11.73
2022-10-19T03:35:33.818Z,11.80
2022-10-19T03:38:36.985Z,11.89
2022-10-19T03:41:39.437Z,12.03
2022-10-19T03:44:42.453Z,12.21
2022-10-19T03:47:50.457Z,12.27
2022-10-19T03:51:08.392Z,12.30
2022-10-19T03:54:15.094Z,12.22
2022-10-19T03:57:18.250Z,12.15
2022-10-19T04:00:20.942Z,12.23
2022-10-19T04:03:24.286Z,12.25
2022-10-19T04:06:28.567Z,12.28
2022-10-19T04:09:31.647Z,12.50
2022-10-19T04:12:34.965Z,12.66
2022-10-19T04:15:37.193Z,12.75
2022-10-19T04:18:42.658Z,12.84
2022-10-19T04:21:48.304Z,12.84
2022-10-19T04:24:52.949Z,12.87
2022-10-19T04:27:55.156Z,12.84
2022-10-19T04:30:58.670Z,12.77
2022-10-19T04:34:01.438Z,12.66
2022-10-19T04:37:04.050Z,12.60
2022-10-19T04:40:09.464Z,12.57
2022-10-19T04:43:14.932Z,12.53
2022-10-19T04:46:19.660Z,12.50
2022-10-19T04:49:22.172Z,12.52
2022-10-19T04:52:24.117Z,12.53
2022-10-19T04:55:26.733Z,12.57
2022-10-19T04:58:29.988Z,12.59
2022-10-19T05:01:32.114Z,12.45
2022-10-19T05:04:35.771Z,12.42
2022-10-19T05:07:38.919Z,12.37
2022-10-19T05:10:45.560Z,12.25
2022-10-19T05:13:50.223Z,12.18
2022-10-19T05:16:52.747Z,12.02
2022-10-19T05:20:03.037Z,11.93
2022-10-19T05:23:10.066Z,11.90
2022-10-19T05:26:19.020Z,11.95
2022-10-19T05:29:23.595Z,12.06
2022-10-19T05:32:28.284Z,12.16
2022-10-19T05:35:34.078Z,12.20
2022-10-19T05:38:36.589Z,12.19
2022-10-19T05:41:39.453Z,12.26
2022-10-19T05:44:41.629Z,12.23
2022-10-19T05:47:43.684Z,12.26
2022-10-19T05:50:55.903Z,12.27
2022-10-19T05:53:59.157Z,12.30
2022-10-19T05:57:02.946Z,12.33
2022-10-19T06:00:07.113Z,12.46
2022-10-19T06:03:09.323Z,12.63
2022-10-19T06:06:12.177Z,12.71
2022-10-19T06:09:14.544Z,12.81
2022-10-19T06:12:20.422Z,12.88
2022-10-19T06:15:24.404Z,12.89
2022-10-19T06:18:29.613Z,12.94
2022-10-19T06:21:34.045Z,12.99
2022-10-19T06:24:37.545Z,13.04
2022-10-19T06:27:41.486Z,13.09
2022-10-19T06:30:44.814Z,13.23
2022-10-19T06:33:49.379Z,13.26
2022-10-19T06:36:52.107Z,13.34
2022-10-19T06:39:54.065Z,13.35
2022-10-19T06:43:05.448Z,13.46
2022-10-19T06:46:12.148Z,13.49
2022-10-19T06:49:15.178Z,13.56
2022-10-19T06:52:20.245Z,13.67
2022-10-19T06:55:29.645Z,13.78
2022-10-19T06:58:39.332Z,13.88
2022-10-19T07:01:41.476Z,13.97
2022-10-19T07:04:43.992Z,14.11
2022-10-19T07:07:46.853Z,14.21
2022-10-19T07:11:01.041Z,14.34
2022-10-19T07:14:04.738Z,14.42
2022-10-19T07:17:07.566Z,14.56
2022-10-19T07:20:12.154Z,14.70
2022-10-19T07:23:16.729Z,14.73
2022-10-19T07:26:23.590Z,14.93
2022-10-19T07:29:25.753Z,14.93
2022-10-19T07:32:29.255Z,15.05
2022-10-19T07:35:33.404Z,15.18
2022-10-19T07:38:36.020Z,15.34
2022-10-19T07:41:40.266Z,15.33
2022-10-19T07:44:42.546Z,15.34
2022-10-19T07:47:44.457Z,15.44
2022-10-19T07:50:54.698Z,15.61
2022-10-19T07:53:58.225Z,15.69
2022-10-19T07:57:00.387Z,15.78
2022-10-19T08:00:02.791Z,15.96
2022-10-19T08:03:43.690Z,15.80
2022-10-19T08:06:28.446Z,15.79
2022-10-19T08:09:52.090Z,15.94
2022-10-19T08:12:56.585Z,16.00
2022-10-19T08:16:02.214Z,16.13
2022-10-19T08:19:07.455Z,16.24
2022-10-19T08:22:09.603Z,16.24
2022-10-19T08:25:15.272Z,16.29
2022-10-19T08:28:19.886Z,16.30
2022-10-19T08:31:29.380Z,16.32
2022-10-19T08:34:33.473Z,16.36
2022-10-19T08:37:47.430Z,16.35
2022-10-19T08:40:53.094Z,16.55
2022-10-19T08:44:10.468Z,16.66
2022-10-19T08:47:17.533Z,16.78
2022-10-19T08:50:30.876Z,16.89
2022-10-19T08:53:39.708Z,16.97
2022-10-19T08:56:53.292Z,16.97
2022-10-19T08:59:56.352Z,17.03
2022-10-19T09:03:37.399Z,17.01
2022-10-19T09:06:59.414Z,17.12
2022-10-19T09:10:04.288Z,17.17
2022-10-19T09:13:08.745Z,17.28
2022-10-19T09:16:16.016Z,17.37
2022-10-19T09:19:25.880Z,17.41
2022-10-19T09:22:34.151Z,17.44
2022-10-19T09:25:38.476Z,17.63
2022-10-19T09:28:56.604Z,17.53
2022-10-19T09:32:02.486Z,17.74
2022-10-19T09:35:05.171Z,17.75
2022-10-19T09:38:08.043Z,17.92
2022-10-19T09:41:20.765Z,17.93
2022-10-19T09:44:25.263Z,18.18
2022-10-19T09:47:33.794Z,18.38
2022-10-19T09:50:43.684Z,18.57
2022-10-19T09:53:54.528Z,18.76
2022-10-19T09:56:57.504Z,18.74
2022-10-19T09:59:59.577Z,18.70
2022-10-19T10:03:01.962Z,18.44
2022-10-19T10:06:07.626Z,18.38
2022-10-19T10:09:16.223Z,18.39
2022-10-19T10:12:19.528Z,18.55
2022-10-19T10:15:23.942Z,18.74
2022-10-19T10:18:31.115Z,18.71
2022-10-19T10:21:47.063Z,18.42
2022-10-19T10:24:54.144Z,18.35
2022-10-19T10:28:04.452Z,18.37
2022-10-19T10:31:07.824Z,18.66
2022-10-19T10:34:28.689Z,18.82
2022-10-19T10:37:41.207Z,18.99
2022-10-19T10:40:51.882Z,19.16
2022-10-19T10:44:07.563Z,19.23
2022-10-19T10:47:14.883Z,19.26
2022-10-19T10:50:22.470Z,19.18
2022-10-19T10:53:36.631Z,19.04
2022-10-19T10:56:46.423Z,19.01
2022-10-19T11:00:12.361Z,19.03
2022-10-19T11:03:24.001Z,19.17
2022-10-19T11:06:26.864Z,19.26
2022-10-19T11:09:29.384Z,19.43
2022-10-19T11:12:36.060Z,19.25
2022-10-19T11:15:59.879Z,19.32
2022-10-19T11:19:25.241Z,19.39
2022-10-19T11:22:37.046Z,19.14
2022-10-19T11:26:04.510Z,19.07
2022-10-19T11:29:06.397Z,19.14
2022-10-19T11:32:18.109Z,19.05
2022-10-19T11:35:39.077Z,18.91
2022-10-19T11:38:51.523Z,18.96
2022-10-19T11:42:09.281Z,19.12
2022-10-19T11:45:13.285Z,19.24
2022-10-19T11:48:18.436Z,19.24
2022-10-19T11:51:29.617Z,19.27
2022-10-19T11:54:43.933Z,18.77
2022-10-19T11:57:55.965Z,18.63
2022-10-19T12:01:26.429Z,18.28
2022-10-19T12:04:43.968Z,18.28
2022-10-19T12:07:55.773Z,18.18
2022-10-19T12:11:19.693Z,18.37
2022-10-19T12:14:31.959Z,18.28
2022-10-19T12:17:39.050Z,18.40
2022-10-19T12:20:51.293Z,18.29
2022-10-19T12:27:51.954Z,18.51
2022-10-19T12:30:54.857Z,18.51
2022-10-19T12:34:15.702Z,18.55
2022-10-19T12:37:22.617Z,18.42
2022-10-19T12:40:28.314Z,18.40
2022-10-19T12:43:49.201Z,18.39
2022-10-19T12:46:56.413Z,18.40
2022-10-19T12:50:04.132Z,18.44
2022-10-19T12:56:29.345Z,18.39
2022-10-19T12:59:44.261Z,18.21
2022-10-19T13:02:50.623Z,18.36
2022-10-19T13:05:57.359Z,18.38
2022-10-19T13:09:04.662Z,18.46
2022-10-19T13:12:20.076Z,18.50
2022-10-19T13:15:35.665Z,18.53
2022-10-19T13:19:07.336Z,18.54
2022-10-19T13:22:33.601Z,18.56
2022-10-19T13:25:46.258Z,18.58
2022-10-19T13:28:53.414Z,18.39
2022-10-19T13:32:19.993Z,18.29
2022-10-19T13:35:28.758Z,18.27
2022-10-19T13:38:38.812Z,18.20
2022-10-19T13:41:49.240Z,18.38
2022-10-19T13:44:53.437Z,18.25
2022-10-19T13:48:03.686Z,18.24
2022-10-19T13:51:26.430Z,18.14
2022-10-19T13:54:52.050Z,18.11
2022-10-19T13:58:24.564Z,17.95
2022-10-19T14:01:55.101Z,17.86
2022-10-19T14:05:21.615Z,17.81
2022-10-19T14:08:36.344Z,17.59
2022-10-19T14:11:40.961Z,17.64
2022-10-19T14:14:45.360Z,17.62
2022-10-19T14:17:47.607Z,17.64
2022-10-19T14:21:08.003Z,17.52
2022-10-19T14:24:32.015Z,17.34
2022-10-19T14:27:35.895Z,17.26
2022-10-19T14:30:39.022Z,17.12
2022-10-19T14:33:48.232Z,17.06
2022-10-19T14:37:01.955Z,16.94
2022-10-19T14:40:16.027Z,16.95
2022-10-19T14:43:24.122Z,16.78
2022-10-19T14:46:37.732Z,16.74
2022-10-19T14:49:41.057Z,16.67
2022-10-19T14:52:45.238Z,16.61
2022-10-19T14:55:48.552Z,16.48
2022-10-19T14:58:55.938Z,16.33
2022-10-19T15:02:04.811Z,16.17
2022-10-19T15:05:18.341Z,16.04
2022-10-19T15:08:32.179Z,15.99
2022-10-19T15:11:40.396Z,15.89
2022-10-19T15:14:43.155Z,15.78
2022-10-19T15:18:02.106Z,15.70
2022-10-19T15:21:34.587Z,15.63
2022-10-19T15:24:43.772Z,15.47
2022-10-19T15:27:57.386Z,15.36
2022-10-19T15:31:01.907Z,15.33
2022-10-19T15:34:27.246Z,15.20
2022-10-19T15:37:31.470Z,15.13
2022-10-19T15:40:35.243Z,15.06
2022-10-19T15:43:38.779Z,14.95
2022-10-19T15:46:50.029Z,14.91
2022-10-19T15:50:01.554Z,14.83
2022-10-19T15:53:04.665Z,14.76
2022-10-19T15:56:12.540Z,14.70
2022-10-19T15:59:21.279Z,14.66
2022-10-19T16:02:35.990Z,14.58
2022-10-19T16:05:42.538Z,14.56
2022-10-19T16:08:46.892Z,14.47
2022-10-19T16:11:49.355Z,14.41
2022-10-19T16:14:57.136Z,14.36
2022-10-19T16:18:05.563Z,14.28
2022-10-19T16:21:09.822Z,14.24
2022-10-19T16:24:13.554Z,14.16
2022-10-19T16:27:21.525Z,14.07
2022-10-19T16:30:24.604Z,13.98
2022-10-19T16:33:29.835Z,13.81
2022-10-19T16:36:34.682Z,13.83
2022-10-19T16:39:41.749Z,13.76
2022-10-19T16:42:51.347Z,13.70
2022-10-19T16:45:54.061Z,13.70
2022-10-19T16:49:02.163Z,13.69
2022-10-19T16:52:06.683Z,13.69
2022-10-19T16:55:12.105Z,13.68
2022-10-19T16:58:14.759Z,13.68
2022-10-19T17:01:18.666Z,13.68
2022-10-19T17:04:25.429Z,13.61
2022-10-19T17:07:31.893Z,13.52
2022-10-19T17:10:50.980Z,13.46
2022-10-19T17:13:55.549Z,13.45
2022-10-19T17:16:58.150Z,13.37
2022-10-19T17:20:00.311Z,13.37
2022-10-19T17:23:02.507Z,13.32
2022-10-19T17:26:05.646Z,13.31
2022-10-19T17:29:13.818Z,13.20
2022-10-19T17:32:16.005Z,13.14
2022-10-19T17:35:18.506Z,13.03
2022-10-19T17:38:22.813Z,13.01
2022-10-19T17:41:25.432Z,12.97
2022-10-19T17:44:30.754Z,12.97
2022-10-19T17:47:33.532Z,12.95
2022-10-19T17:50:37.003Z,12.87
2022-10-19T17:53:39.644Z,12.83
2022-10-19T17:56:45.533Z,12.76
2022-10-19T17:59:52.959Z,12.72
2022-10-19T18:03:02.772Z,12.66
2022-10-19T18:06:10.785Z,12.64
2022-10-19T18:09:14.414Z,12.63
2022-10-19T18:12:30.932Z,12.51
2022-10-19T18:15:35.050Z,12.42
2022-10-19T18:18:38.444Z,12.40
2022-10-19T18:21:43.189Z,12.32
2022-10-19T18:24:46.843Z,12.24
2022-10-19T18:27:52.995Z,12.26
2022-10-19T18:30:55.743Z,12.18
2022-10-19T18:34:02.942Z,12.04
2022-10-19T18:37:13.294Z,11.92
2022-10-19T18:40:16.461Z,11.86
2022-10-19T18:43:18.878Z,11.80
2022-10-19T18:46:21.658Z,11.79
2022-10-19T18:49:24.958Z,11.74
2022-10-19T18:52:28.411Z,11.66
2022-10-19T18:55:32.747Z,11.65
2022-10-19T18:58:36.336Z,11.60
2022-10-19T19:01:41.542Z,11.62
2022-10-19T19:04:44.507Z,11.54
2022-10-19T19:07:47.709Z,11.49
2022-10-19T19:10:49.822Z,11.41
2022-10-19T19:14:02.010Z,11.32
2022-10-19T19:17:11.222Z,11.23
2022-10-19T19:20:14.863Z,11.07
2022-10-19T19:23:23.779Z,11.00
2022-10-19T19:26:29.336Z,10.91
2022-10-19T19:29:38.440Z,10.91
2022-10-19T19:32:40.992Z,10.91
2022-10-19T19:35:47.415Z,10.92
2022-10-19T19:38:56.533Z,10.88
2022-10-19T19:42:03.009Z,10.91
2022-10-19T19:45:08.931Z,10.97
2022-10-19T19:48:15.722Z,10.94
2022-10-19T19:51:26.534Z,10.89
2022-10-19T19:54:48.944Z,10.79
2022-10-19T19:57:55.351Z,10.72
2022-10-19T20:00:57.629Z,10.58
2022-10-19T20:07:17.213Z,10.66
2022-10-19T20:10:21.541Z,10.57
2022-10-19T20:13:27.188Z,10.53
2022-10-19T20:16:36.044Z,10.45
2022-10-19T20:19:40.856Z,10.30
2022-10-19T20:22:52.562Z,10.17
2022-10-19T20:25:57.408Z,10.10
2022-10-19T20:29:06.239Z,10.10
2022-10-19T20:32:09.761Z,10.06
2022-10-19T20:35:14.007Z,10.02
2022-10-19T20:38:18.866Z,9.90
2022-10-19T20:41:23.091Z,9.86
2022-10-19T20:44:30.458Z,9.80
2022-10-19T20:47:32.692Z,9.71
2022-10-19T20:50:35.501Z,9.62
2022-10-19T20:53:47.188Z,9.60
2022-10-19T20:56:53.811Z,9.68
2022-10-19T20:59:56.338Z,9.70
2022-10-19T21:03:06.028Z,9.73
2022-10-19T21:06:11.334Z,9.77
2022-10-19T21:09:25.467Z,9.78
2022-10-19T21:12:30.557Z,9.71
2022-10-19T21:15:42.491Z,9.61
2022-10-19T21:18:57.183Z,9.65
2022-10-19T21:22:10.464Z,9.69
2022-10-19T21:25:14.410Z,9.68
2022-10-19T21:28:27.426Z,9.69
2022-10-19T21:31:30.061Z,9.75
2022-10-19T21:34:32.391Z,9.75
2022-10-19T21:37:35.859Z,9.75
2022-10-19T21:40:41.964Z,9.79
2022-10-19T21:43:44.183Z,9.84
2022-10-19T21:47:00.893Z,9.87
2022-10-19T21:50:06.189Z,9.86
2022-10-19T21:53:11.867Z,9.85
2022-10-19T21:56:15.103Z,9.80
2022-10-19T21:59:25.020Z,9.79
2022-10-19T22:02:34.724Z,9.79
2022-10-19T22:05:45.668Z,9.70
2022-10-19T22:09:04.865Z,9.67
2022-10-19T22:12:07.782Z,9.63
2022-10-19T22:15:10.913Z,9.65
2022-10-19T22:18:15.595Z,9.66
2022-10-19T22:21:20.895Z,9.60
2022-10-19T22:24:35.075Z,9.66
2022-10-19T22:27:43.678Z,9.69
2022-10-19T22:30:58.596Z,9.67
2022-10-19T22:34:08.694Z,9.60
2022-10-19T22:37:23.178Z,9.54
2022-10-19T22:40:28.877Z,9.56
2022-10-19T22:43:32.345Z,9.52
2022-10-19T22:46:34.312Z,9.43
2022-10-19T22:49:42.925Z,9.38
2022-10-19T22:53:06.574Z,9.43
2022-10-19T22:57:02.542Z,9.41
2022-10-19T23:00:12.593Z,9.35
2022-10-19T23:03:15.038Z,9.34
2022-10-19T23:06:28.836Z,9.23
2022-10-19T23:09:31.405Z,9.21
2022-10-19T23:12:52.119Z,9.17
2022-10-19T23:15:54.626Z,9.19
2022-10-19T23:19:06.806Z,9.14
2022-10-19T23:22:30.870Z,9.05
2022-10-19T23:25:33.818Z,8.84
2022-10-19T23:28:36.910Z,8.74
2022-10-19T23:31:39.737Z,8.56
2022-10-19T23:34:47.520Z,8.43
2022-10-19T23:38:06.777Z,8.41
2022-10-19T23:41:30.460Z,8.20
2022-10-19T23:44:44.795Z,8.13
2022-10-19T23:47:55.980Z,7.96
2022-10-19T23:51:32.005Z,7.85
2022-10-19T23:54:54.496Z,7.84
2022-10-19T23:58:09.401Z,7.71
